sensor_id;sensor_type;location;lat;lon;timestamp;pressure;altitude;pressure_sealevel;temperature;humidity
53916;BME280;39827;49.652;18.770;2023-01-30T00:01:02;96546.84;;;-4.64;87.60
53916;BME280;39827;49.652;18.770;2023-01-30T00:03:28;96541.19;;;-4.60;89.99
53916;BME280;39827;49.652;18.770;2023-01-30T00:05:54;96540.22;;;-4.67;88.53
53916;BME280;39827;49.652;18.770;2023-01-30T00:08:19;96527.31;;;-4.67;91.14
53916;BME280;39827;49.652;18.770;2023-01-30T00:10:46;96528.91;;;-4.58;88.43
53916;BME280;39827;49.652;18.770;2023-01-30T00:13:12;96509.63;;;-4.97;88.12
53916;BME280;39827;49.652;18.770;2023-01-30T00:15:38;96508.25;;;-4.66;88.00
53916;BME280;39827;49.652;18.770;2023-01-30T00:18:04;96506.31;;;-4.47;89.60
53916;BME280;39827;49.652;18.770;2023-01-30T00:20:29;96502.59;;;-4.53;85.97
53916;BME280;39827;49.652;18.770;2023-01-30T00:22:55;96495.16;;;-4.64;87.16
53916;BME280;39827;49.652;18.770;2023-01-30T00:25:20;96491.75;;;-4.81;84.78
53916;BME280;39827;49.652;18.770;2023-01-30T00:27:45;96485.47;;;-4.29;87.67
53916;BME280;39827;49.652;18.770;2023-01-30T00:30:11;96487.91;;;-4.27;86.09
53916;BME280;39827;49.652;18.770;2023-01-30T00:32:37;96494.69;;;-4.43;85.40
53916;BME280;39827;49.652;18.770;2023-01-30T00:35:02;96478.69;;;-4.55;84.88
53916;BME280;39827;49.652;18.770;2023-01-30T00:37:28;96489.16;;;-4.73;85.16
53916;BME280;39827;49.652;18.770;2023-01-30T00:39:53;96485.09;;;-5.01;86.40
53916;BME280;39827;49.652;18.770;2023-01-30T00:42:18;96480.88;;;-5.10;91.30
53916;BME280;39827;49.652;18.770;2023-01-30T00:45:02;96484.75;;;-5.14;88.70
53916;BME280;39827;49.652;18.770;2023-01-30T00:47:48;96474.16;;;-4.78;89.39
53916;BME280;39827;49.652;18.770;2023-01-30T00:50:13;96471.41;;;-4.76;85.19
53916;BME280;39827;49.652;18.770;2023-01-30T00:52:39;96473.81;;;-4.91;85.76
53916;BME280;39827;49.652;18.770;2023-01-30T00:55:05;96449.59;;;-4.57;87.21
53916;BME280;39827;49.652;18.770;2023-01-30T00:57:30;96449.28;;;-4.79;86.14
53916;BME280;39827;49.652;18.770;2023-01-30T00:59:55;96447.03;;;-4.90;85.49
53916;BME280;39827;49.652;18.770;2023-01-30T01:02:21;96438.41;;;-5.24;86.43
53916;BME280;39827;49.652;18.770;2023-01-30T01:04:46;96439.59;;;-4.85;88.15
53916;BME280;39827;49.652;18.770;2023-01-30T01:07:13;96426.03;;;-4.71;86.77
53916;BME280;39827;49.652;18.770;2023-01-30T01:09:38;96416.22;;;-4.84;86.40
53916;BME280;39827;49.652;18.770;2023-01-30T01:12:04;96406.84;;;-4.93;85.05
53916;BME280;39827;49.652;18.770;2023-01-30T01:14:30;96418.63;;;-4.90;84.43
53916;BME280;39827;49.652;18.770;2023-01-30T01:16:56;96415.19;;;-5.16;85.29
53916;BME280;39827;49.652;18.770;2023-01-30T01:19:22;96410.81;;;-5.40;85.33
53916;BME280;39827;49.652;18.770;2023-01-30T01:21:47;96413.91;;;-5.12;87.44
53916;BME280;39827;49.652;18.770;2023-01-30T01:24:14;96405.38;;;-4.95;85.08
53916;BME280;39827;49.652;18.770;2023-01-30T01:26:41;96407.16;;;-5.13;85.43
53916;BME280;39827;49.652;18.770;2023-01-30T01:29:12;96392.13;;;-5.01;85.70
53916;BME280;39827;49.652;18.770;2023-01-30T01:31:38;96380.44;;;-5.63;86.27
53916;BME280;39827;49.652;18.770;2023-01-30T01:34:03;96372.78;;;-5.21;86.83
53916;BME280;39827;49.652;18.770;2023-01-30T01:36:28;96358.06;;;-5.38;87.08
53916;BME280;39827;49.652;18.770;2023-01-30T01:38:54;96378.44;;;-5.01;84.36
53916;BME280;39827;49.652;18.770;2023-01-30T01:41:19;96349.06;;;-5.17;84.50
53916;BME280;39827;49.652;18.770;2023-01-30T01:44:11;96347.94;;;-4.98;86.42
53916;BME280;39827;49.652;18.770;2023-01-30T01:49:11;96336.28;;;-4.60;90.06
53916;BME280;39827;49.652;18.770;2023-01-30T01:51:41;96341.28;;;-4.67;84.32
53916;BME280;39827;49.652;18.770;2023-01-30T01:54:11;96335.50;;;-5.27;84.90
53916;BME280;39827;49.652;18.770;2023-01-30T01:56:42;96334.19;;;-5.48;86.87
53916;BME280;39827;49.652;18.770;2023-01-30T01:59:36;96322.88;;;-5.64;87.54
53916;BME280;39827;49.652;18.770;2023-01-30T02:02:08;96321.72;;;-5.86;88.59
53916;BME280;39827;49.652;18.770;2023-01-30T02:04:36;96324.13;;;-5.93;88.98
53916;BME280;39827;49.652;18.770;2023-01-30T02:07:21;96311.78;;;-5.64;88.83
53916;BME280;39827;49.652;18.770;2023-01-30T02:09:47;96321.41;;;-5.75;88.47
53916;BME280;39827;49.652;18.770;2023-01-30T02:12:14;96315.72;;;-5.95;89.25
53916;BME280;39827;49.652;18.770;2023-01-30T02:14:40;96309.28;;;-6.07;89.20
53916;BME280;39827;49.652;18.770;2023-01-30T02:17:06;96316.06;;;-5.90;90.91
53916;BME280;39827;49.652;18.770;2023-01-30T02:22:34;96306.94;;;-5.59;85.25
53916;BME280;39827;49.652;18.770;2023-01-30T02:25:20;96292.59;;;-5.45;87.60
53916;BME280;39827;49.652;18.770;2023-01-30T02:28:05;96302.91;;;-5.53;85.52
53916;BME280;39827;49.652;18.770;2023-01-30T02:36:18;96280.97;;;-5.24;84.75
53916;BME280;39827;49.652;18.770;2023-01-30T02:38:55;96282.44;;;-5.63;85.48
53916;BME280;39827;49.652;18.770;2023-01-30T02:46:49;96274.28;;;-6.02;87.96
53916;BME280;39827;49.652;18.770;2023-01-30T02:49:22;96268.00;;;-6.16;88.53
53916;BME280;39827;49.652;18.770;2023-01-30T02:51:51;96279.63;;;-6.11;88.68
53916;BME280;39827;49.652;18.770;2023-01-30T02:54:17;96273.31;;;-6.25;89.41
53916;BME280;39827;49.652;18.770;2023-01-30T02:56:44;96261.25;;;-6.17;89.76
53916;BME280;39827;49.652;18.770;2023-01-30T02:59:10;96279.00;;;-5.97;88.74
53916;BME280;39827;49.652;18.770;2023-01-30T03:15:09;96268.00;;;-5.99;89.00
53916;BME280;39827;49.652;18.770;2023-01-30T03:17:40;96244.03;;;-6.16;89.33
53916;BME280;39827;49.652;18.770;2023-01-30T03:20:09;96231.44;;;-6.03;88.41
53916;BME280;39827;49.652;18.770;2023-01-30T03:22:34;96269.47;;;-5.96;88.53
53916;BME280;39827;49.652;18.770;2023-01-30T03:25:00;96239.19;;;-6.03;88.99
53916;BME280;39827;49.652;18.770;2023-01-30T03:27:25;96248.88;;;-5.88;87.72
53916;BME280;39827;49.652;18.770;2023-01-30T03:29:51;96230.31;;;-6.00;88.70
53916;BME280;39827;49.652;18.770;2023-01-30T03:32:16;96233.88;;;-5.76;87.60
53916;BME280;39827;49.652;18.770;2023-01-30T03:34:42;96210.81;;;-6.03;88.80
53916;BME280;39827;49.652;18.770;2023-01-30T03:37:07;96204.06;;;-5.95;88.58
53916;BME280;39827;49.652;18.770;2023-01-30T03:39:33;96209.88;;;-5.93;87.83
53916;BME280;39827;49.652;18.770;2023-01-30T03:41:58;96222.13;;;-5.95;88.08
53916;BME280;39827;49.652;18.770;2023-01-30T03:44:24;96219.72;;;-5.80;88.12
53916;BME280;39827;49.652;18.770;2023-01-30T03:46:49;96201.97;;;-5.92;88.54
53916;BME280;39827;49.652;18.770;2023-01-30T03:49:14;96203.09;;;-5.94;87.83
53916;BME280;39827;49.652;18.770;2023-01-30T03:51:40;96207.13;;;-5.83;88.12
53916;BME280;39827;49.652;18.770;2023-01-30T03:54:05;96185.06;;;-5.69;87.28
53916;BME280;39827;49.652;18.770;2023-01-30T03:56:31;96187.66;;;-5.69;87.38
53916;BME280;39827;49.652;18.770;2023-01-30T03:58:56;96197.31;;;-5.71;87.10
53916;BME280;39827;49.652;18.770;2023-01-30T04:01:21;96197.16;;;-5.78;88.21
53916;BME280;39827;49.652;18.770;2023-01-30T04:03:47;96192.47;;;-5.75;88.45
53916;BME280;39827;49.652;18.770;2023-01-30T04:06:12;96176.50;;;-5.78;87.56
53916;BME280;39827;49.652;18.770;2023-01-30T04:08:38;96182.16;;;-5.75;86.84
53916;BME280;39827;49.652;18.770;2023-01-30T04:11:03;96200.50;;;-5.53;86.89
53916;BME280;39827;49.652;18.770;2023-01-30T04:13:29;96189.56;;;-5.55;86.91
53916;BME280;39827;49.652;18.770;2023-01-30T04:16:16;96175.06;;;-5.56;87.08
53916;BME280;39827;49.652;18.770;2023-01-30T04:18:42;96192.78;;;-5.53;86.67
53916;BME280;39827;49.652;18.770;2023-01-30T04:21:07;96194.88;;;-5.65;87.20
53916;BME280;39827;49.652;18.770;2023-01-30T04:23:32;96177.81;;;-5.66;86.98
53916;BME280;39827;49.652;18.770;2023-01-30T04:25:58;96179.25;;;-5.71;87.40
53916;BME280;39827;49.652;18.770;2023-01-30T04:28:23;96170.69;;;-5.64;87.39
53916;BME280;39827;49.652;18.770;2023-01-30T04:30:51;96149.75;;;-5.60;87.39
53916;BME280;39827;49.652;18.770;2023-01-30T04:33:17;96146.63;;;-5.31;85.74
53916;BME280;39827;49.652;18.770;2023-01-30T04:35:53;96159.22;;;-5.36;85.60
53916;BME280;39827;49.652;18.770;2023-01-30T04:38:20;96121.16;;;-5.34;85.42
53916;BME280;39827;49.652;18.770;2023-01-30T04:40:49;96134.38;;;-5.29;86.01
53916;BME280;39827;49.652;18.770;2023-01-30T04:43:15;96131.13;;;-5.31;84.64
53916;BME280;39827;49.652;18.770;2023-01-30T04:45:47;96148.88;;;-5.28;85.58
53916;BME280;39827;49.652;18.770;2023-01-30T04:48:14;96146.75;;;-5.16;84.99
53916;BME280;39827;49.652;18.770;2023-01-30T04:50:40;96142.88;;;-5.20;84.85
53916;BME280;39827;49.652;18.770;2023-01-30T04:53:07;96134.63;;;-5.07;84.64
53916;BME280;39827;49.652;18.770;2023-01-30T04:55:32;96146.56;;;-5.14;84.45
53916;BME280;39827;49.652;18.770;2023-01-30T04:57:57;96138.94;;;-4.99;84.82
53916;BME280;39827;49.652;18.770;2023-01-30T05:00:24;96132.28;;;-4.85;83.10
53916;BME280;39827;49.652;18.770;2023-01-30T05:02:50;96149.97;;;-4.74;82.37
53916;BME280;39827;49.652;18.770;2023-01-30T05:05:15;96164.84;;;-4.76;83.09
53916;BME280;39827;49.652;18.770;2023-01-30T05:07:41;96146.75;;;-4.76;82.22
53916;BME280;39827;49.652;18.770;2023-01-30T05:10:07;96160.91;;;-4.63;83.04
53916;BME280;39827;49.652;18.770;2023-01-30T05:12:32;96157.16;;;-4.92;83.04
53916;BME280;39827;49.652;18.770;2023-01-30T05:14:58;96147.34;;;-4.97;84.16
53916;BME280;39827;49.652;18.770;2023-01-30T05:17:24;96149.28;;;-4.99;83.91
53916;BME280;39827;49.652;18.770;2023-01-30T05:19:49;96121.78;;;-4.84;83.04
53916;BME280;39827;49.652;18.770;2023-01-30T05:22:14;96131.63;;;-4.87;83.68
53916;BME280;39827;49.652;18.770;2023-01-30T05:24:40;96124.81;;;-4.80;83.26
53916;BME280;39827;49.652;18.770;2023-01-30T05:27:05;96122.94;;;-4.86;83.59
53916;BME280;39827;49.652;18.770;2023-01-30T05:29:31;96102.97;;;-5.01;84.08
53916;BME280;39827;49.652;18.770;2023-01-30T05:31:56;96113.88;;;-4.82;84.44
53916;BME280;39827;49.652;18.770;2023-01-30T05:34:22;96109.25;;;-4.95;85.58
53916;BME280;39827;49.652;18.770;2023-01-30T05:36:47;96090.75;;;-4.75;85.36
53916;BME280;39827;49.652;18.770;2023-01-30T05:39:13;96099.69;;;-4.86;84.73
53916;BME280;39827;49.652;18.770;2023-01-30T05:41:38;96119.81;;;-4.81;86.03
53916;BME280;39827;49.652;18.770;2023-01-30T05:44:04;96120.06;;;-4.68;83.69
53916;BME280;39827;49.652;18.770;2023-01-30T05:46:29;96132.16;;;-4.60;83.83
53916;BME280;39827;49.652;18.770;2023-01-30T05:48:55;96126.44;;;-4.79;84.04
53916;BME280;39827;49.652;18.770;2023-01-30T05:51:23;96106.22;;;-4.67;83.52
53916;BME280;39827;49.652;18.770;2023-01-30T05:53:48;96091.38;;;-4.73;84.68
53916;BME280;39827;49.652;18.770;2023-01-30T05:56:14;96102.66;;;-4.66;84.81
53916;BME280;39827;49.652;18.770;2023-01-30T05:58:40;96100.84;;;-4.65;83.38
53916;BME280;39827;49.652;18.770;2023-01-30T06:01:09;96108.72;;;-4.59;83.49
53916;BME280;39827;49.652;18.770;2023-01-30T06:03:36;96108.28;;;-4.39;83.79
53916;BME280;39827;49.652;18.770;2023-01-30T06:06:02;96108.75;;;-4.35;83.06
53916;BME280;39827;49.652;18.770;2023-01-30T06:08:28;96100.00;;;-4.58;83.78
53916;BME280;39827;49.652;18.770;2023-01-30T06:10:58;96106.56;;;-4.23;84.11
53916;BME280;39827;49.652;18.770;2023-01-30T06:13:24;96112.81;;;-4.18;82.11
53916;BME280;39827;49.652;18.770;2023-01-30T06:15:51;96108.06;;;-4.29;83.37
53916;BME280;39827;49.652;18.770;2023-01-30T06:18:17;96094.88;;;-4.34;82.49
53916;BME280;39827;49.652;18.770;2023-01-30T06:20:46;96080.59;;;-4.30;84.21
53916;BME280;39827;49.652;18.770;2023-01-30T06:23:13;96069.84;;;-4.19;82.97
53916;BME280;39827;49.652;18.770;2023-01-30T06:25:42;96072.50;;;-4.27;83.35
53916;BME280;39827;49.652;18.770;2023-01-30T06:28:08;96055.00;;;-4.40;83.88
53916;BME280;39827;49.652;18.770;2023-01-30T06:30:33;96037.41;;;-4.45;84.25
53916;BME280;39827;49.652;18.770;2023-01-30T06:32:59;96039.72;;;-4.50;84.68
53916;BME280;39827;49.652;18.770;2023-01-30T06:35:24;96029.56;;;-4.51;85.04
53916;BME280;39827;49.652;18.770;2023-01-30T06:37:49;96024.09;;;-4.33;84.36
53916;BME280;39827;49.652;18.770;2023-01-30T06:40:15;96007.16;;;-4.36;84.10
53916;BME280;39827;49.652;18.770;2023-01-30T06:42:45;95982.88;;;-4.50;85.52
53916;BME280;39827;49.652;18.770;2023-01-30T06:45:12;95969.03;;;-4.57;86.39
53916;BME280;39827;49.652;18.770;2023-01-30T06:47:51;95978.81;;;-4.67;86.49
53916;BME280;39827;49.652;18.770;2023-01-30T06:50:18;95975.03;;;-4.56;86.44
53916;BME280;39827;49.652;18.770;2023-01-30T06:52:46;95962.91;;;-4.41;84.85
53916;BME280;39827;49.652;18.770;2023-01-30T06:55:13;95969.91;;;-4.26;83.93
53916;BME280;39827;49.652;18.770;2023-01-30T06:57:40;95968.13;;;-4.11;83.92
53916;BME280;39827;49.652;18.770;2023-01-30T07:00:07;95988.22;;;-3.98;83.90
53916;BME280;39827;49.652;18.770;2023-01-30T07:02:33;95955.50;;;-4.21;84.50
53916;BME280;39827;49.652;18.770;2023-01-30T07:05:03;95959.22;;;-4.08;84.59
53916;BME280;39827;49.652;18.770;2023-01-30T07:07:30;95956.53;;;-4.30;85.80
53916;BME280;39827;49.652;18.770;2023-01-30T07:09:56;95957.25;;;-4.36;85.67
53916;BME280;39827;49.652;18.770;2023-01-30T07:12:22;95940.31;;;-4.39;86.22
53916;BME280;39827;49.652;18.770;2023-01-30T07:14:49;95943.69;;;-4.38;86.84
53916;BME280;39827;49.652;18.770;2023-01-30T07:17:15;95976.19;;;-4.59;86.92
53916;BME280;39827;49.652;18.770;2023-01-30T07:19:41;95953.41;;;-4.40;87.09
53916;BME280;39827;49.652;18.770;2023-01-30T07:22:06;95971.16;;;-4.37;87.43
53916;BME280;39827;49.652;18.770;2023-01-30T07:24:32;95975.00;;;-4.18;86.68
53916;BME280;39827;49.652;18.770;2023-01-30T07:26:57;95997.13;;;-4.15;86.31
53916;BME280;39827;49.652;18.770;2023-01-30T07:29:22;95983.28;;;-4.23;86.16
53916;BME280;39827;49.652;18.770;2023-01-30T07:31:48;96017.19;;;-3.87;85.03
53916;BME280;39827;49.652;18.770;2023-01-30T07:34:13;96039.78;;;-3.96;85.12
53916;BME280;39827;49.652;18.770;2023-01-30T07:36:38;96029.16;;;-3.86;85.04
53916;BME280;39827;49.652;18.770;2023-01-30T07:39:04;96035.03;;;-3.93;85.07
53916;BME280;39827;49.652;18.770;2023-01-30T07:41:30;96041.22;;;-3.78;85.06
53916;BME280;39827;49.652;18.770;2023-01-30T07:43:56;96022.84;;;-3.84;84.63
53916;BME280;39827;49.652;18.770;2023-01-30T07:46:21;96023.72;;;-3.76;84.51
53916;BME280;39827;49.652;18.770;2023-01-30T07:48:46;96018.38;;;-3.75;85.48
53916;BME280;39827;49.652;18.770;2023-01-30T07:51:12;96037.00;;;-3.64;84.86
53916;BME280;39827;49.652;18.770;2023-01-30T07:53:37;96036.22;;;-3.65;85.07
53916;BME280;39827;49.652;18.770;2023-01-30T07:56:07;96034.88;;;-3.61;84.32
53916;BME280;39827;49.652;18.770;2023-01-30T07:58:32;96008.09;;;-3.83;84.37
53916;BME280;39827;49.652;18.770;2023-01-30T08:00:58;95978.88;;;-3.69;85.40
53916;BME280;39827;49.652;18.770;2023-01-30T08:03:23;95977.25;;;-3.85;86.41
53916;BME280;39827;49.652;18.770;2023-01-30T08:05:49;95985.78;;;-3.39;83.86
53916;BME280;39827;49.652;18.770;2023-01-30T08:08:14;95974.88;;;-3.34;84.14
53916;BME280;39827;49.652;18.770;2023-01-30T08:10:40;95976.59;;;-3.42;83.51
53916;BME280;39827;49.652;18.770;2023-01-30T08:13:05;95975.72;;;-3.49;83.99
53916;BME280;39827;49.652;18.770;2023-01-30T08:15:31;95969.78;;;-3.43;83.93
53916;BME280;39827;49.652;18.770;2023-01-30T08:17:58;95957.81;;;-3.29;84.50
53916;BME280;39827;49.652;18.770;2023-01-30T08:20:24;95973.94;;;-3.11;83.55
53916;BME280;39827;49.652;18.770;2023-01-30T08:22:51;95942.72;;;-3.62;84.83
53916;BME280;39827;49.652;18.770;2023-01-30T08:25:16;95950.28;;;-3.60;85.71
53916;BME280;39827;49.652;18.770;2023-01-30T08:27:42;95953.44;;;-3.65;86.04
53916;BME280;39827;49.652;18.770;2023-01-30T08:30:09;95933.63;;;-3.73;86.64
53916;BME280;39827;49.652;18.770;2023-01-30T08:32:34;95946.72;;;-3.44;85.66
53916;BME280;39827;49.652;18.770;2023-01-30T08:35:00;95962.41;;;-3.46;84.54
53916;BME280;39827;49.652;18.770;2023-01-30T08:37:25;95946.88;;;-3.46;86.15
53916;BME280;39827;49.652;18.770;2023-01-30T08:39:50;95937.81;;;-3.20;85.23
53916;BME280;39827;49.652;18.770;2023-01-30T08:42:16;95936.72;;;-3.47;85.46
53916;BME280;39827;49.652;18.770;2023-01-30T08:44:41;95938.63;;;-3.86;87.76
53916;BME280;39827;49.652;18.770;2023-01-30T08:47:06;95948.69;;;-3.61;86.68
53916;BME280;39827;49.652;18.770;2023-01-30T08:49:32;95927.56;;;-3.65;87.15
53916;BME280;39827;49.652;18.770;2023-01-30T08:51:57;95918.88;;;-3.57;87.22
53916;BME280;39827;49.652;18.770;2023-01-30T08:54:22;95917.38;;;-3.30;87.57
53916;BME280;39827;49.652;18.770;2023-01-30T08:56:48;95917.84;;;-3.41;86.79
53916;BME280;39827;49.652;18.770;2023-01-30T08:59:13;95910.09;;;-3.41;87.38
53916;BME280;39827;49.652;18.770;2023-01-30T09:01:39;95919.19;;;-3.45;87.95
53916;BME280;39827;49.652;18.770;2023-01-30T09:04:04;95914.59;;;-3.50;87.86
53916;BME280;39827;49.652;18.770;2023-01-30T09:06:30;95934.44;;;-3.35;87.38
53916;BME280;39827;49.652;18.770;2023-01-30T09:08:56;95929.19;;;-3.42;87.73
53916;BME280;39827;49.652;18.770;2023-01-30T09:11:22;95928.88;;;-3.54;88.00
53916;BME280;39827;49.652;18.770;2023-01-30T09:13:48;95932.66;;;-3.72;89.87
53916;BME280;39827;49.652;18.770;2023-01-30T09:16:13;95937.06;;;-3.50;88.77
53916;BME280;39827;49.652;18.770;2023-01-30T09:18:39;95917.31;;;-3.36;88.41
53916;BME280;39827;49.652;18.770;2023-01-30T09:21:06;95900.00;;;-3.36;88.76
53916;BME280;39827;49.652;18.770;2023-01-30T09:23:32;95915.69;;;-3.22;87.71
53916;BME280;39827;49.652;18.770;2023-01-30T09:25:57;95907.59;;;-3.12;87.74
53916;BME280;39827;49.652;18.770;2023-01-30T09:28:24;95913.03;;;-3.29;87.76
53916;BME280;39827;49.652;18.770;2023-01-30T09:30:51;95906.34;;;-3.17;87.21
53916;BME280;39827;49.652;18.770;2023-01-30T09:33:16;95884.34;;;-3.28;87.78
53916;BME280;39827;49.652;18.770;2023-01-30T09:35:48;95886.78;;;-2.97;88.10
53916;BME280;39827;49.652;18.770;2023-01-30T09:38:13;95900.19;;;-2.94;87.08
53916;BME280;39827;49.652;18.770;2023-01-30T09:45:43;95879.72;;;-2.60;85.24
53916;BME280;39827;49.652;18.770;2023-01-30T09:50:54;95846.41;;;-2.63;85.27
53916;BME280;39827;49.652;18.770;2023-01-30T09:56:18;95839.03;;;-2.88;86.54
53916;BME280;39827;49.652;18.770;2023-01-30T09:58:51;95845.41;;;-2.91;87.88
53916;BME280;39827;49.652;18.770;2023-01-30T10:04:23;95823.97;;;-3.06;87.94
53916;BME280;39827;49.652;18.770;2023-01-30T10:09:51;95828.94;;;-2.83;87.54
53916;BME280;39827;49.652;18.770;2023-01-30T10:21:07;95812.16;;;-2.58;87.52
53916;BME280;39827;49.652;18.770;2023-01-30T10:23:48;95807.16;;;-2.60;87.26
53916;BME280;39827;49.652;18.770;2023-01-30T10:26:20;95813.84;;;-2.72;89.13
53916;BME280;39827;49.652;18.770;2023-01-30T10:28:59;95774.28;;;-2.59;90.39
53916;BME280;39827;49.652;18.770;2023-01-30T10:31:31;95776.66;;;-2.58;91.44
53916;BME280;39827;49.652;18.770;2023-01-30T10:34:02;95768.06;;;-2.65;92.29
53916;BME280;39827;49.652;18.770;2023-01-30T10:36:39;95785.44;;;-2.59;93.92
53916;BME280;39827;49.652;18.770;2023-01-30T10:39:18;95766.09;;;-2.56;93.16
53916;BME280;39827;49.652;18.770;2023-01-30T10:41:52;95751.34;;;-2.56;94.63
53916;BME280;39827;49.652;18.770;2023-01-30T10:44:21;95752.97;;;-2.48;94.46
53916;BME280;39827;49.652;18.770;2023-01-30T10:49:49;95772.66;;;-2.60;97.60
53916;BME280;39827;49.652;18.770;2023-01-30T10:52:44;95750.94;;;-2.59;97.86
53916;BME280;39827;49.652;18.770;2023-01-30T10:58:26;95743.19;;;-2.59;98.74
53916;BME280;39827;49.652;18.770;2023-01-30T11:01:39;95732.34;;;-2.70;98.97
53916;BME280;39827;49.652;18.770;2023-01-30T11:04:14;95737.50;;;-2.77;98.87
53916;BME280;39827;49.652;18.770;2023-01-30T11:06:44;95744.22;;;-2.82;98.61
53916;BME280;39827;49.652;18.770;2023-01-30T11:09:10;95756.25;;;-2.75;97.63
53916;BME280;39827;49.652;18.770;2023-01-30T11:11:47;95730.81;;;-2.57;96.43
53916;BME280;39827;49.652;18.770;2023-01-30T11:14:13;95730.84;;;-2.51;95.16
53916;BME280;39827;49.652;18.770;2023-01-30T11:16:50;95729.00;;;-2.64;95.79
53916;BME280;39827;49.652;18.770;2023-01-30T11:19:20;95735.16;;;-2.65;94.75
53916;BME280;39827;49.652;18.770;2023-01-30T11:21:49;95732.41;;;-2.56;94.38
53916;BME280;39827;49.652;18.770;2023-01-30T11:24:28;95710.88;;;-2.64;95.71
53916;BME280;39827;49.652;18.770;2023-01-30T11:26:55;95712.06;;;-2.59;95.72
53916;BME280;39827;49.652;18.770;2023-01-30T11:29:33;95720.19;;;-2.69;95.86
53916;BME280;39827;49.652;18.770;2023-01-30T11:32:03;95702.50;;;-2.52;94.78
53916;BME280;39827;49.652;18.770;2023-01-30T11:34:28;95721.41;;;-2.65;95.78
53916;BME280;39827;49.652;18.770;2023-01-30T11:37:12;95693.16;;;-2.53;94.88
53916;BME280;39827;49.652;18.770;2023-01-30T11:39:48;95695.09;;;-2.62;95.04
53916;BME280;39827;49.652;18.770;2023-01-30T11:42:18;95686.41;;;-2.47;94.02
53916;BME280;39827;49.652;18.770;2023-01-30T11:44:44;95690.78;;;-2.48;94.69
53916;BME280;39827;49.652;18.770;2023-01-30T11:47:19;95695.56;;;-2.52;95.03
53916;BME280;39827;49.652;18.770;2023-01-30T11:49:48;95695.78;;;-2.40;94.44
53916;BME280;39827;49.652;18.770;2023-01-30T11:52:19;95686.22;;;-2.39;95.69
53916;BME280;39827;49.652;18.770;2023-01-30T11:54:47;95681.63;;;-2.37;95.96
53916;BME280;39827;49.652;18.770;2023-01-30T11:57:15;95669.00;;;-2.54;96.62
53916;BME280;39827;49.652;18.770;2023-01-30T11:59:56;95659.88;;;-2.36;97.20
53916;BME280;39827;49.652;18.770;2023-01-30T12:02:32;95667.75;;;-2.02;95.91
53916;BME280;39827;49.652;18.770;2023-01-30T12:05:06;95642.97;;;-2.25;95.74
53916;BME280;39827;49.652;18.770;2023-01-30T12:07:36;95658.94;;;-2.15;96.19
53916;BME280;39827;49.652;18.770;2023-01-30T12:12:48;95619.22;;;-2.29;96.36
53916;BME280;39827;49.652;18.770;2023-01-30T12:15:21;95612.84;;;-2.26;96.45
53916;BME280;39827;49.652;18.770;2023-01-30T12:23:10;95606.66;;;-2.25;96.55
53916;BME280;39827;49.652;18.770;2023-01-30T12:31:10;95633.63;;;-1.86;96.86
53916;BME280;39827;49.652;18.770;2023-01-30T12:33:37;95624.84;;;-1.91;96.35
53916;BME280;39827;49.652;18.770;2023-01-30T12:50:04;95603.69;;;-1.88;95.31
53916;BME280;39827;49.652;18.770;2023-01-30T12:52:40;95611.25;;;-1.80;95.02
53916;BME280;39827;49.652;18.770;2023-01-30T13:03:26;95630.63;;;-2.03;97.17
53916;BME280;39827;49.652;18.770;2023-01-30T13:14:23;95611.69;;;-1.76;100.00
53916;BME280;39827;49.652;18.770;2023-01-30T13:27:18;95595.69;;;-2.20;100.00
53916;BME280;39827;49.652;18.770;2023-01-30T13:29:47;95593.69;;;-2.25;100.00
53916;BME280;39827;49.652;18.770;2023-01-30T13:32:39;95593.50;;;-2.30;100.00
53916;BME280;39827;49.652;18.770;2023-01-30T13:35:48;95595.13;;;-2.16;100.00
53916;BME280;39827;49.652;18.770;2023-01-30T13:38:24;95586.53;;;-2.10;100.00
53916;BME280;39827;49.652;18.770;2023-01-30T13:40:53;95583.94;;;-2.10;100.00
53916;BME280;39827;49.652;18.770;2023-01-30T13:45:46;95574.34;;;-1.89;100.00
53916;BME280;39827;49.652;18.770;2023-01-30T13:51:29;95572.75;;;-1.76;100.00
53916;BME280;39827;49.652;18.770;2023-01-30T13:56:51;95575.13;;;-1.61;100.00
53916;BME280;39827;49.652;18.770;2023-01-30T13:59:27;95577.31;;;-1.65;100.00
53916;BME280;39827;49.652;18.770;2023-01-30T14:09:48;95604.25;;;-1.46;100.00
53916;BME280;39827;49.652;18.770;2023-01-30T14:12:21;95601.22;;;-1.29;100.00
53916;BME280;39827;49.652;18.770;2023-01-30T14:22:59;95593.88;;;-0.86;100.00
53916;BME280;39827;49.652;18.770;2023-01-30T14:30:52;95598.50;;;-0.49;100.00
53916;BME280;39827;49.652;18.770;2023-01-30T14:38:19;95600.69;;;-0.14;99.18
53916;BME280;39827;49.652;18.770;2023-01-30T14:41:14;95587.47;;;-0.12;97.42
53916;BME280;39827;49.652;18.770;2023-01-30T14:51:23;95592.63;;;0.20;96.95
53916;BME280;39827;49.652;18.770;2023-01-30T15:04:20;95597.59;;;0.21;98.34
53916;BME280;39827;49.652;18.770;2023-01-30T15:06:47;95582.47;;;0.11;99.16
53916;BME280;39827;49.652;18.770;2023-01-30T15:09:18;95585.97;;;-0.02;97.90
53916;BME280;39827;49.652;18.770;2023-01-30T15:11:52;95582.63;;;0.17;98.00
53916;BME280;39827;49.652;18.770;2023-01-30T15:28:19;95571.38;;;0.23;98.30
53916;BME280;39827;49.652;18.770;2023-01-30T15:31:07;95567.94;;;0.22;97.91
53916;BME280;39827;49.652;18.770;2023-01-30T15:33:42;95563.63;;;0.16;98.93
53916;BME280;39827;49.652;18.770;2023-01-30T15:36:24;95569.78;;;0.22;99.08
53916;BME280;39827;49.652;18.770;2023-01-30T15:39:05;95576.94;;;0.27;99.06
53916;BME280;39827;49.652;18.770;2023-01-30T15:41:37;95567.34;;;0.46;97.34
53916;BME280;39827;49.652;18.770;2023-01-30T15:47:12;95574.88;;;0.91;94.84
53916;BME280;39827;49.652;18.770;2023-01-30T15:49:53;95582.34;;;0.88;94.23
53916;BME280;39827;49.652;18.770;2023-01-30T15:52:24;95572.50;;;0.90;94.13
53916;BME280;39827;49.652;18.770;2023-01-30T15:54:55;95593.78;;;0.87;93.98
53916;BME280;39827;49.652;18.770;2023-01-30T15:57:34;95580.81;;;0.80;94.08
53916;BME280;39827;49.652;18.770;2023-01-30T16:00:01;95583.75;;;1.02;92.23
53916;BME280;39827;49.652;18.770;2023-01-30T16:02:30;95583.47;;;1.11;92.31
53916;BME280;39827;49.652;18.770;2023-01-30T16:05:23;95584.81;;;1.32;90.21